Time;durP1;ratioP1;P1;durP2;ratioP2;P2;SDS_P1;SDS_P2;PMS_P1;PMS_P2;Temp;Humidity;BMP_temperature;BMP_pressure;BME280_temperature;BME280_humidity;BME280_pressure;Samples;Min_cycle;Max_cycle;Signal;HPM_P1;HPM_P2
2024/01/22 00:01:38;;;;;;;6.50;3.15;;;9.30;78.40;;;;;;5095098;28;20040;-70
2024/01/22 00:04:04;;;;;;;7.82;3.38;;;9.30;78.50;;;;;;5094018;28;20043;-70
2024/01/22 00:06:30;;;;;;;7.00;3.17;;;9.40;78.50;;;;;;5093774;28;20032;-70
2024/01/22 00:08:56;;;;;;;6.35;2.95;;;9.40;78.50;;;;;;5094480;28;20161;-70
2024/01/22 00:11:22;;;;;;;9.27;3.42;;;9.40;78.40;;;;;;5095252;28;20341;-70
2024/01/22 00:13:47;;;;;;;8.73;2.72;;;9.40;78.50;;;;;;5095151;28;20023;-70
2024/01/22 00:16:15;;;;;;;6.72;3.20;;;9.40;78.60;;;;;;5094378;28;20416;-70
2024/01/22 00:18:41;;;;;;;7.05;3.05;;;9.50;78.60;;;;;;5094515;28;20342;-70
2024/01/22 00:21:06;;;;;;;8.00;3.72;;;9.50;78.50;;;;;;5093892;28;20039;-70
2024/01/22 00:23:32;;;;;;;6.38;2.92;;;9.50;78.40;;;;;;5094898;28;20028;-70
2024/01/22 00:25:58;;;;;;;7.13;3.40;;;9.50;78.50;;;;;;5093485;28;20031;-70
2024/01/22 00:28:23;;;;;;;8.65;3.90;;;9.60;78.50;;;;;;5094660;28;20020;-70
2024/01/22 00:30:49;;;;;;;7.40;3.15;;;9.60;78.40;;;;;;5076736;28;20448;-70
2024/01/22 00:33:15;;;;;;;9.00;4.10;;;9.60;78.40;;;;;;5076316;28;20465;-70
2024/01/22 00:35:41;;;;;;;7.63;2.90;;;9.60;78.40;;;;;;5094593;28;20028;-70
2024/01/22 00:38:06;;;;;;;7.18;3.47;;;9.70;78.40;;;;;;5093577;28;20124;-70
2024/01/22 00:40:32;;;;;;;8.88;3.13;;;9.70;78.40;;;;;;5094358;28;20050;-69
2024/01/22 00:42:58;;;;;;;7.38;3.20;;;9.70;78.40;;;;;;5093849;28;20035;-70
2024/01/22 00:45:23;;;;;;;7.32;3.05;;;9.70;78.30;;;;;;5093525;28;20032;-70
2024/01/22 00:47:49;;;;;;;7.65;3.30;;;9.70;78.30;;;;;;5094257;28;20429;-70
2024/01/22 00:50:15;;;;;;;7.38;3.13;;;9.80;78.30;;;;;;5092857;28;20032;-70
2024/01/22 00:52:41;;;;;;;7.45;3.90;;;9.80;78.30;;;;;;5092803;28;20028;-70
2024/01/22 00:55:07;;;;;;;7.82;2.92;;;9.80;78.30;;;;;;5094284;28;20028;-70
2024/01/22 00:57:32;;;;;;;7.15;3.17;;;9.80;78.30;;;;;;5085346;28;20162;-70
2024/01/22 00:59:58;;;;;;;8.68;3.72;;;9.80;78.30;;;;;;5094277;28;20111;-70
2024/01/22 01:02:24;;;;;;;6.55;3.20;;;9.80;78.50;;;;;;5094880;28;20368;-70
2024/01/22 01:04:49;;;;;;;8.88;3.38;;;9.80;78.30;;;;;;5092706;28;20024;-70
2024/01/22 01:07:15;;;;;;;9.77;3.47;;;9.90;78.40;;;;;;5093478;28;20027;-70
2024/01/22 01:09:41;;;;;;;7.60;3.38;;;9.90;78.40;;;;;;5094252;28;20052;-70
2024/01/22 01:12:07;;;;;;;5.88;2.53;;;9.90;78.30;;;;;;5094181;28;20128;-70
2024/01/22 01:14:32;;;;;;;7.13;3.13;;;9.90;78.20;;;;;;5092469;28;20364;-70
2024/01/22 01:16:59;;;;;;;6.30;2.95;;;9.90;78.20;;;;;;5092913;28;20032;-70
2024/01/22 01:19:24;;;;;;;6.53;3.10;;;10.00;78.30;;;;;;5092646;28;20360;-70
2024/01/22 01:21:50;;;;;;;7.25;3.00;;;10.00;78.30;;;;;;5092699;28;20039;-70
2024/01/22 01:24:16;;;;;;;8.77;3.50;;;10.00;78.30;;;;;;5093153;28;20020;-69
2024/01/22 01:26:42;;;;;;;7.00;2.90;;;10.00;78.20;;;;;;5075618;28;20449;-70
2024/01/22 01:29:08;;;;;;;6.38;2.50;;;10.00;78.10;;;;;;5075267;28;20023;-70
2024/01/22 01:31:35;;;;;;;7.60;3.25;;;10.10;78.10;;;;;;5092853;28;20028;-69
2024/01/22 01:34:01;;;;;;;7.30;2.92;;;10.10;78.10;;;;;;5093241;28;20109;-70
2024/01/22 01:36:26;;;;;;;7.32;2.60;;;10.10;78.10;;;;;;5093434;28;20442;-70
2024/01/22 01:38:52;;;;;;;5.95;2.78;;;10.10;78.10;;;;;;5093280;28;20024;-70
2024/01/22 01:41:18;;;;;;;6.50;3.15;;;10.10;78.00;;;;;;5092297;28;20023;-70
2024/01/22 01:43:43;;;;;;;9.25;2.92;;;10.10;78.20;;;;;;5091285;28;20451;-70
2024/01/22 01:46:09;;;;;;;5.72;2.97;;;10.20;78.10;;;;;;5094688;28;20067;-69
2024/01/22 01:48:36;;;;;;;6.35;2.80;;;10.20;78.10;;;;;;5093333;28;20036;-70
2024/01/22 01:51:02;;;;;;;6.30;2.97;;;10.20;78.00;;;;;;5092337;28;20035;-69
2024/01/22 01:53:29;;;;;;;6.20;2.22;;;10.20;78.00;;;;;;5092681;28;20032;-70
2024/01/22 01:55:57;;;;;;;6.40;2.65;;;10.30;78.00;;;;;;5091965;28;20043;-70
2024/01/22 01:58:23;;;;;;;5.25;2.53;;;10.30;78.00;;;;;;5093124;28;20020;-70
2024/01/22 02:00:51;;;;;;;6.03;2.85;;;10.30;78.10;;;;;;5091822;28;20027;-70
2024/01/22 02:03:16;;;;;;;6.68;2.67;;;10.30;78.20;;;;;;5090587;28;20364;-70
2024/01/22 02:05:43;;;;;;;4.90;2.20;;;10.30;78.20;;;;;;5091276;28;20020;-69
2024/01/22 02:08:08;;;;;;;6.32;2.42;;;10.30;78.20;;;;;;5073287;28;20035;-70
2024/01/22 02:10:34;;;;;;;6.57;2.75;;;10.30;78.20;;;;;;5092639;28;20345;-69
2024/01/22 02:13:03;;;;;;;6.65;2.72;;;10.30;78.20;;;;;;5092974;28;20419;-70
2024/01/22 02:15:29;;;;;;;6.05;2.60;;;10.40;78.20;;;;;;5091471;28;20051;-70
2024/01/22 02:17:59;;;;;;;4.75;2.17;;;10.40;78.30;;;;;;5093222;28;20019;-70
2024/01/22 02:20:25;;;;;;;6.75;2.45;;;10.40;78.30;;;;;;5092337;28;20104;-70
2024/01/22 02:22:51;;;;;;;7.35;2.50;;;10.40;78.30;;;;;;5093016;28;20054;-70
2024/01/22 02:25:16;;;;;;;5.40;2.58;;;10.40;78.20;;;;;;5093306;28;20223;-70
2024/01/22 02:27:42;;;;;;;6.55;2.78;;;10.40;78.30;;;;;;5103236;28;20020;-70
2024/01/22 02:30:08;;;;;;;6.25;2.72;;;10.50;78.40;;;;;;5093542;28;20318;-70
2024/01/22 02:32:34;;;;;;;6.05;2.38;;;10.50;78.40;;;;;;5093727;28;20028;-70
2024/01/22 02:35:00;;;;;;;8.55;2.63;;;10.50;78.40;;;;;;5092545;28;20028;-70
2024/01/22 02:37:25;;;;;;;7.30;2.38;;;10.50;78.30;;;;;;5094646;28;20056;-70
2024/01/22 02:39:51;;;;;;;5.72;2.25;;;10.50;78.20;;;;;;5094617;28;20122;-70
2024/01/22 02:42:17;;;;;;;6.05;2.05;;;10.50;78.20;;;;;;5091575;28;20048;-70
2024/01/22 02:44:43;;;;;;;4.57;2.17;;;10.50;78.30;;;;;;5092442;28;20543;-70
2024/01/22 02:47:08;;;;;;;5.38;2.15;;;10.60;78.30;;;;;;5076028;28;20024;-70
2024/01/22 02:49:34;;;;;;;9.77;2.85;;;10.60;78.30;;;;;;5092317;28;20325;-70
2024/01/22 02:52:00;;;;;;;5.13;2.17;;;10.60;78.30;;;;;;5091932;28;20020;-69
2024/01/22 02:54:27;;;;;;;6.15;2.38;;;10.60;78.40;;;;;;5092032;28;20034;-69
2024/01/22 02:56:53;;;;;;;6.95;2.25;;;10.60;78.50;;;;;;5092703;28;20019;-69
2024/01/22 02:59:19;;;;;;;7.55;2.17;;;10.60;78.60;;;;;;5092440;28;20123;-69
2024/01/22 03:01:45;;;;;;;7.07;2.30;;;10.60;78.70;;;;;;5102511;28;20028;-69
2024/01/22 03:04:11;;;;;;;5.35;1.90;;;10.60;78.90;;;;;;5092403;28;20108;-69
2024/01/22 03:06:38;;;;;;;6.35;2.63;;;10.70;79.20;;;;;;5091367;28;20368;-69
2024/01/22 03:09:04;;;;;;;5.88;2.22;;;10.60;79.20;;;;;;5091048;28;20403;-69
2024/01/22 03:11:30;;;;;;;4.95;2.15;;;10.60;79.40;;;;;;5091895;28;20036;-69
2024/01/22 03:13:56;;;;;;;5.57;2.20;;;10.60;79.60;;;;;;5090654;28;20085;-69
2024/01/22 03:16:22;;;;;;;4.30;2.08;;;10.60;79.70;;;;;;5093830;28;20081;-69
2024/01/22 03:18:47;;;;;;;5.43;2.45;;;10.60;79.80;;;;;;5094354;28;20020;-69
2024/01/22 03:21:13;;;;;;;5.95;2.60;;;10.60;79.90;;;;;;5096225;28;20081;-70
2024/01/22 03:23:40;;;;;;;5.72;2.15;;;10.60;80.10;;;;;;5096189;28;20027;-69
2024/01/22 03:26:06;;;;;;;5.10;2.10;;;10.60;80.20;;;;;;5092848;28;20051;-69
2024/01/22 03:28:31;;;;;;;5.30;1.95;;;10.60;80.30;;;;;;5094372;28;20415;-69
2024/01/22 03:30:57;;;;;;;4.93;2.28;;;10.60;80.40;;;;;;5095372;28;20028;-70
2024/01/22 03:33:23;;;;;;;6.47;2.47;;;10.60;80.30;;;;;;5095890;28;20024;-70
2024/01/22 03:35:49;;;;;;;5.85;2.00;;;10.70;80.40;;;;;;5095331;28;20138;-70
2024/01/22 03:38:15;;;;;;;4.40;2.05;;;10.60;80.40;;;;;;5094734;28;20036;-70
2024/01/22 03:40:40;;;;;;;3.95;2.13;;;10.60;80.60;;;;;;5095038;28;20039;-70
2024/01/22 03:43:06;;;;;;;7.15;2.33;;;10.70;80.70;;;;;;5094826;28;20031;-70
2024/01/22 03:45:32;;;;;;;4.43;2.22;;;10.70;80.60;;;;;;5095269;28;20054;-70
2024/01/22 03:47:57;;;;;;;4.38;1.80;;;10.70;80.70;;;;;;5094778;28;20102;-70
2024/01/22 03:50:23;;;;;;;3.63;1.70;;;10.70;80.70;;;;;;5092356;28;20035;-70
2024/01/22 03:52:49;;;;;;;4.45;2.20;;;10.70;80.70;;;;;;5094807;28;20026;-69
2024/01/22 03:55:15;;;;;;;4.07;1.70;;;10.70;80.90;;;;;;5100712;28;21314;-69
2024/01/22 03:57:40;;;;;;;4.93;2.20;;;10.70;81.00;;;;;;5095436;28;20122;-69
2024/01/22 04:00:07;;;;;;;6.10;2.00;;;10.70;81.10;;;;;;5096081;28;20051;-69
2024/01/22 04:02:33;;;;;;;4.75;1.60;;;10.70;81.30;;;;;;5077287;28;20035;-69
2024/01/22 04:04:59;;;;;;;5.00;2.00;;;10.70;81.50;;;;;;5094206;28;20042;-69
2024/01/22 04:07:25;;;;;;;4.78;1.80;;;10.70;81.60;;;;;;5095290;28;20073;-69
2024/01/22 04:09:51;;;;;;;4.20;1.95;;;10.70;81.80;;;;;;5095041;28;20020;-69
2024/01/22 04:12:17;;;;;;;4.40;1.65;;;10.70;81.90;;;;;;5096238;28;20043;-69
2024/01/22 04:14:42;;;;;;;5.10;1.90;;;10.70;82.70;;;;;;5095023;28;20028;-69
2024/01/22 04:17:09;;;;;;;5.53;1.90;;;10.70;82.20;;;;;;5095141;28;20047;-69
2024/01/22 04:19:35;;;;;;;3.72;1.65;;;10.70;82.20;;;;;;5104716;28;20397;-69
2024/01/22 04:22:03;;;;;;;4.88;1.58;;;10.70;82.30;;;;;;5094026;28;20035;-69
2024/01/22 04:24:29;;;;;;;3.67;1.65;;;10.70;82.50;;;;;;5093830;28;20107;-69
2024/01/22 04:26:54;;;;;;;3.33;1.58;;;10.70;82.60;;;;;;5094273;28;20024;-69
2024/01/22 04:29:20;;;;;;;3.90;1.55;;;10.70;82.70;;;;;;5092693;28;20031;-69
2024/01/22 04:31:46;;;;;;;3.35;1.60;;;10.70;82.70;;;;;;5092598;28;20031;-69
2024/01/22 04:34:12;;;;;;;3.97;1.55;;;10.70;82.80;;;;;;5092037;28;20028;-69
2024/01/22 04:36:37;;;;;;;4.95;1.80;;;10.70;82.90;;;;;;5076673;28;20056;-70
2024/01/22 04:39:03;;;;;;;4.00;1.70;;;10.70;83.10;;;;;;5094222;28;20368;-69
2024/01/22 04:41:29;;;;;;;4.13;1.70;;;10.80;83.00;;;;;;5090848;28;20024;-70
2024/01/22 04:43:55;;;;;;;3.97;1.50;;;10.80;83.10;;;;;;5092505;28;20111;-70
2024/01/22 04:46:20;;;;;;;4.55;1.67;;;10.80;83.10;;;;;;5092868;28;20020;-70
2024/01/22 04:48:46;;;;;;;5.88;1.70;;;10.80;83.20;;;;;;5088812;28;20028;-70
2024/01/22 04:51:12;;;;;;;3.35;1.58;;;10.80;83.20;;;;;;5094609;28;20020;-70
2024/01/22 04:53:37;;;;;;;4.18;1.70;;;10.80;83.20;;;;;;5091678;28;20114;-70
2024/01/22 04:56:03;;;;;;;3.22;1.45;;;10.90;83.40;;;;;;5089259;28;20050;-70
2024/01/22 04:58:29;;;;;;;3.83;1.50;;;10.90;83.50;;;;;;5082679;28;20032;-70
2024/01/22 05:00:55;;;;;;;3.92;1.48;;;10.90;83.60;;;;;;5080389;28;20023;-70
2024/01/22 05:03:20;;;;;;;4.68;1.80;;;10.90;83.60;;;;;;5082837;28;20361;-69
2024/01/22 05:05:46;;;;;;;3.50;1.55;;;10.90;83.60;;;;;;5086556;28;20020;-70
2024/01/22 05:08:12;;;;;;;3.20;1.45;;;10.90;83.70;;;;;;5077901;28;20415;-70
2024/01/22 05:10:38;;;;;;;4.53;1.50;;;11.00;83.80;;;;;;5081601;28;20051;-70
2024/01/22 05:13:04;;;;;;;4.30;1.77;;;11.00;83.80;;;;;;5081732;28;20460;-70
2024/01/22 05:15:29;;;;;;;2.25;1.33;;;11.00;83.80;;;;;;5083223;28;20138;-70
2024/01/22 05:17:55;;;;;;;3.85;1.70;;;11.00;83.90;;;;;;5093740;27;20020;-70
2024/01/22 05:20:21;;;;;;;5.47;1.45;;;11.00;84.00;;;;;;5080270;28;20365;-70
2024/01/22 05:22:46;;;;;;;5.63;1.80;;;11.00;84.00;;;;;;5079583;28;20031;-70
2024/01/22 05:25:13;;;;;;;2.45;1.20;;;11.00;84.10;;;;;;5081006;28;20360;-70
2024/01/22 05:27:44;;;;;;;5.13;1.40;;;11.00;84.10;;;;;;5087409;28;20033;-70
2024/01/22 05:30:10;;;;;;;3.20;1.45;;;11.00;84.20;;;;;;5080965;28;20046;-70
2024/01/22 05:32:36;;;;;;;3.63;1.20;;;11.10;84.20;;;;;;5076500;28;20448;-70
2024/01/22 05:35:02;;;;;;;3.88;1.30;;;11.10;84.20;;;;;;5076885;28;20402;-70
2024/01/22 05:37:28;;;;;;;3.95;1.67;;;11.10;84.20;;;;;;5076390;28;20078;-70
2024/01/22 05:39:54;;;;;;;3.60;1.27;;;11.10;84.20;;;;;;5075655;28;20348;-70
2024/01/22 05:42:19;;;;;;;2.78;1.20;;;11.10;84.20;;;;;;5075432;28;20445;-70
2024/01/22 05:44:45;;;;;;;5.82;1.30;;;11.20;84.30;;;;;;5084709;28;20463;-70
2024/01/22 05:47:11;;;;;;;5.18;1.60;;;11.20;84.30;;;;;;5078268;28;20509;-70
2024/01/22 05:49:37;;;;;;;3.38;1.35;;;11.20;84.30;;;;;;5080064;28;20059;-70
2024/01/22 05:52:03;;;;;;;3.03;1.30;;;11.20;84.30;;;;;;5078334;28;20428;-70
2024/01/22 05:54:29;;;;;;;3.65;1.13;;;11.20;84.30;;;;;;5074400;28;20114;-70
2024/01/22 05:56:55;;;;;;;4.47;1.80;;;11.30;84.40;;;;;;5092877;28;20035;-70
2024/01/22 05:59:21;;;;;;;3.25;1.27;;;11.30;84.50;;;;;;5093034;28;20364;-70
2024/01/22 06:01:47;;;;;;;5.95;1.42;;;11.30;84.40;;;;;;5092238;28;20046;-70
2024/01/22 06:04:12;;;;;;;4.05;1.20;;;11.30;84.50;;;;;;5092601;28;20038;-70
2024/01/22 06:06:38;;;;;;;4.30;1.38;;;11.40;84.50;;;;;;5092002;28;20020;-70
2024/01/22 06:09:06;;;;;;;5.25;1.70;;;11.30;84.40;;;;;;5091646;28;20027;-70
2024/01/22 06:11:31;;;;;;;2.40;1.23;;;11.40;84.50;;;;;;5091663;28;20435;-70
2024/01/22 06:13:57;;;;;;;3.15;0.98;;;11.40;84.50;;;;;;5091753;28;20016;-70
2024/01/22 06:16:23;;;;;;;3.58;1.17;;;11.40;84.50;;;;;;5093020;28;20016;-70
2024/01/22 06:18:49;;;;;;;3.33;1.35;;;11.40;84.50;;;;;;5091548;28;20063;-70
2024/01/22 06:21:14;;;;;;;3.85;1.20;;;11.50;84.50;;;;;;5091944;28;20119;-70
2024/01/22 06:23:43;;;;;;;3.75;1.20;;;11.50;84.40;;;;;;5102887;28;20028;-69
2024/01/22 06:26:09;;;;;;;3.55;1.17;;;11.60;84.40;;;;;;5092565;28;20028;-70
2024/01/22 06:28:35;;;;;;;4.45;1.48;;;11.60;84.40;;;;;;5091152;28;20024;-70
2024/01/22 06:31:02;;;;;;;2.38;0.88;;;11.60;84.40;;;;;;5092267;28;20039;-70
2024/01/22 06:33:28;;;;;;;3.15;1.00;;;11.60;84.40;;;;;;5092081;28;20097;-70
2024/01/22 06:35:54;;;;;;;2.40;1.00;;;11.70;84.40;;;;;;5092817;28;20028;-70
2024/01/22 06:38:20;;;;;;;3.72;1.15;;;11.70;84.40;;;;;;5091555;28;20111;-69
2024/01/22 06:40:46;;;;;;;3.05;0.93;;;11.80;84.40;;;;;;5091761;28;20028;-69
2024/01/22 06:43:12;;;;;;;5.53;1.30;;;11.80;84.30;;;;;;5082521;28;20050;-69
2024/01/22 06:45:38;;;;;;;2.17;1.20;;;11.80;84.20;;;;;;5092783;28;20133;-70
2024/01/22 06:48:04;;;;;;;2.47;1.00;;;11.90;84.30;;;;;;5079706;28;20028;-68
2024/01/22 06:50:30;;;;;;;4.32;1.35;;;11.80;84.30;;;;;;5078040;28;20055;-68
2024/01/22 06:52:56;;;;;;;5.47;1.30;;;11.80;84.30;;;;;;5114330;28;20056;-68
2024/01/22 06:55:23;;;;;;;4.00;1.08;;;11.90;84.60;;;;;;5097781;28;20051;-69
2024/01/22 06:57:50;;;;;;;1.77;0.90;;;11.90;84.60;;;;;;5098416;28;20115;-69
2024/01/22 07:00:19;;;;;;;5.90;1.38;;;11.90;84.70;;;;;;5097269;28;20103;-69
2024/01/22 07:02:46;;;;;;;4.38;1.35;;;11.90;84.70;;;;;;5097486;28;20093;-68
2024/01/22 07:05:12;;;;;;;2.38;1.10;;;11.90;84.70;;;;;;5098468;28;20025;-69
2024/01/22 07:07:38;;;;;;;3.25;1.10;;;11.90;84.70;;;;;;5096777;28;20085;-68
2024/01/22 07:10:08;;;;;;;1.95;0.88;;;11.90;84.70;;;;;;5097874;28;20032;-68
2024/01/22 07:12:34;;;;;;;3.88;1.20;;;11.90;84.80;;;;;;5096256;28;20112;-69
2024/01/22 07:15:01;;;;;;;3.08;1.00;;;11.90;84.90;;;;;;5096812;28;20028;-70
2024/01/22 07:17:28;;;;;;;5.47;1.10;;;11.90;84.90;;;;;;5113724;28;20032;-69
2024/01/22 07:19:55;;;;;;;3.70;1.10;;;11.90;85.00;;;;;;5107032;28;20028;-69
2024/01/22 07:22:20;;;;;;;3.03;1.02;;;11.90;85.00;;;;;;5096799;28;20020;-69
2024/01/22 07:24:46;;;;;;;3.72;1.38;;;11.90;85.00;;;;;;5097493;28;20448;-69
2024/01/22 07:27:12;;;;;;;3.47;1.23;;;11.90;85.00;;;;;;5097272;28;20063;-71
2024/01/22 07:29:37;;;;;;;3.63;1.13;;;11.90;84.90;;;;;;5096179;28;20020;-71
2024/01/22 07:32:04;;;;;;;5.97;1.10;;;11.90;84.90;;;;;;5096672;28;20028;-71
2024/01/22 07:34:29;;;;;;;5.68;1.25;;;12.00;84.90;;;;;;5083969;28;20043;-71
2024/01/22 07:36:55;;;;;;;5.85;1.40;;;11.90;84.80;;;;;;5112189;28;20069;-71
2024/01/22 07:39:21;;;;;;;6.22;1.40;;;11.90;84.70;;;;;;5098085;28;20031;-71
2024/01/22 07:41:48;;;;;;;5.72;1.80;;;12.00;84.70;;;;;;5096147;28;20106;-70
2024/01/22 07:44:13;;;;;;;5.32;1.10;;;12.00;84.70;;;;;;5096942;28;20411;-72
2024/01/22 07:46:39;;;;;;;8.82;1.50;;;12.00;84.70;;;;;;5117986;27;20371;-72
2024/01/22 07:49:05;;;;;;;3.75;1.73;;;12.00;84.60;;;;;;5095879;28;20349;-71
2024/01/22 07:51:31;;;;;;;7.30;1.30;;;12.00;84.50;;;;;;5095842;28;20047;-72
2024/01/22 07:53:56;;;;;;;5.28;1.23;;;12.10;84.50;;;;;;5095357;28;20070;-73
2024/01/22 07:56:23;;;;;;;5.25;1.75;;;12.10;84.50;;;;;;5096548;28;20430;-72
2024/01/22 07:58:48;;;;;;;6.45;1.30;;;12.10;84.30;;;;;;5097459;28;20493;-71
2024/01/22 08:01:14;;;;;;;6.50;1.83;;;12.10;84.30;;;;;;5095386;28;20024;-71
2024/01/22 08:03:40;;;;;;;6.75;1.48;;;12.10;84.20;;;;;;5083461;28;20432;-71
2024/01/22 08:06:06;;;;;;;5.97;1.50;;;12.10;84.20;;;;;;5096409;28;20111;-71
2024/01/22 08:08:31;;;;;;;5.10;1.27;;;12.10;84.20;;;;;;5095282;28;20020;-71
2024/01/22 08:10:57;;;;;;;7.95;2.00;;;12.10;84.20;;;;;;5096604;28;20456;-72
2024/01/22 08:13:23;;;;;;;4.50;1.42;;;12.10;84.20;;;;;;5095737;28;20031;-72
2024/01/22 08:15:49;;;;;;;6.88;1.80;;;12.10;84.10;;;;;;5096821;28;20023;-71
2024/01/22 08:18:15;;;;;;;10.10;2.13;;;12.10;84.10;;;;;;5096699;28;20024;-71
2024/01/22 08:20:42;;;;;;;5.90;1.50;;;12.10;84.10;;;;;;5097459;28;20107;-72
2024/01/22 08:23:09;;;;;;;7.50;2.10;;;12.10;84.20;;;;;;5096536;28;20035;-72
2024/01/22 08:25:36;;;;;;;7.85;1.85;;;12.20;84.20;;;;;;5095779;28;20066;-72
2024/01/22 08:28:02;;;;;;;8.07;2.30;;;12.20;84.60;;;;;;5093877;28;20101;-72
2024/01/22 08:30:29;;;;;;;8.57;1.60;;;12.20;84.30;;;;;;5095312;28;20047;-72
2024/01/22 08:32:56;;;;;;;8.35;1.83;;;12.20;84.30;;;;;;5094138;28;20134;-72
2024/01/22 08:35:22;;;;;;;8.70;1.83;;;12.20;84.40;;;;;;5095056;28;20444;-72
2024/01/22 08:37:52;;;;;;;6.55;2.25;;;12.20;84.40;;;;;;5094459;28;20034;-72
2024/01/22 08:40:22;;;;;;;6.50;2.00;;;12.20;84.40;;;;;;5094826;28;20070;-73
2024/01/22 08:42:54;;;;;;;7.57;1.70;;;12.10;84.40;;;;;;5098093;27;20143;-71
2024/01/22 08:45:23;;;;;;;6.82;2.22;;;12.10;84.40;;;;;;5093932;28;20092;-72
2024/01/22 08:47:50;;;;;;;7.53;2.33;;;12.20;84.40;;;;;;5095566;28;20106;-72
2024/01/22 08:50:21;;;;;;;7.45;1.88;;;12.20;84.50;;;;;;5097983;28;20028;-71
2024/01/22 08:52:48;;;;;;;7.78;1.73;;;12.20;84.50;;;;;;5094850;28;20440;-73
2024/01/22 08:55:18;;;;;;;5.53;2.15;;;12.10;84.50;;;;;;5094787;28;20102;-72
2024/01/22 08:57:45;;;;;;;7.90;1.85;;;12.20;84.60;;;;;;5094253;28;20111;-72
2024/01/22 09:00:11;;;;;;;7.57;1.70;;;12.20;84.60;;;;;;5093018;28;20051;-72
2024/01/22 09:02:41;;;;;;;8.82;1.92;;;12.20;84.60;;;;;;5089172;28;20429;-71
2024/01/22 09:05:11;;;;;;;7.80;1.60;;;12.20;84.60;;;;;;5093264;28;20032;-72
2024/01/22 09:07:38;;;;;;;7.57;1.98;;;12.20;84.60;;;;;;5095060;28;20035;-73
2024/01/22 09:10:07;;;;;;;13.00;3.05;;;12.20;84.50;;;;;;5094719;28;20413;-72
2024/01/22 09:12:33;;;;;;;8.13;2.25;;;12.20;84.60;;;;;;5094096;28;20032;-72
2024/01/22 09:15:00;;;;;;;9.10;1.95;;;12.20;84.60;;;;;;5093389;28;20042;-72
2024/01/22 09:17:26;;;;;;;12.40;2.92;;;12.20;84.60;;;;;;5094398;28;20058;-72
2024/01/22 09:19:52;;;;;;;10.15;2.08;;;12.30;84.60;;;;;;5094450;28;20028;-72
2024/01/22 09:22:21;;;;;;;10.25;2.53;;;12.30;84.70;;;;;;5092787;28;20553;-72
2024/01/22 09:24:47;;;;;;;8.43;2.05;;;12.20;84.60;;;;;;5091611;28;20020;-72
2024/01/22 09:27:13;;;;;;;10.20;2.65;;;12.20;84.60;;;;;;5093720;28;20455;-73
2024/01/22 09:29:42;;;;;;;6.93;1.92;;;12.30;84.70;;;;;;5094666;28;20028;-70
2024/01/22 09:32:09;;;;;;;9.13;2.10;;;12.30;84.70;;;;;;5096795;28;20028;-72
2024/01/22 09:34:39;;;;;;;9.18;2.05;;;12.30;84.70;;;;;;5093477;28;20028;-71
2024/01/22 09:37:05;;;;;;;9.10;1.90;;;12.30;84.60;;;;;;5095021;28;20031;-71
2024/01/22 09:39:32;;;;;;;8.52;3.10;;;12.30;84.70;;;;;;5090735;28;20028;-71
2024/01/22 09:41:59;;;;;;;8.55;2.85;;;12.30;84.80;;;;;;5093136;28;20032;-72
2024/01/22 09:44:28;;;;;;;10.98;2.75;;;12.30;84.90;;;;;;5094744;28;20111;-71
2024/01/22 09:46:54;;;;;;;9.07;2.42;;;12.30;84.90;;;;;;5098184;28;20099;-72
2024/01/22 09:49:20;;;;;;;7.47;1.83;;;12.20;85.00;;;;;;5094275;28;20020;-71
2024/01/22 09:51:46;;;;;;;7.80;2.45;;;12.20;85.10;;;;;;5092890;28;20449;-73
2024/01/22 09:54:18;;;;;;;5.30;1.73;;;12.10;85.10;;;;;;5099000;28;20128;-73
2024/01/22 09:56:53;;;;;;;8.38;1.70;;;12.10;85.20;;;;;;5091953;28;20031;-72
2024/01/22 09:59:21;;;;;;;10.05;2.42;;;12.00;85.10;;;;;;5093894;28;20397;-72
2024/01/22 10:01:51;;;;;;;10.13;2.08;;;11.90;85.00;;;;;;5093909;28;20028;-72
2024/01/22 10:04:17;;;;;;;9.48;2.13;;;11.90;85.10;;;;;;5093527;28;20063;-72
2024/01/22 10:06:48;;;;;;;10.63;2.17;;;11.80;85.10;;;;;;5101128;28;20401;-73
2024/01/22 10:09:17;;;;;;;11.32;2.92;;;11.70;85.00;;;;;;5099838;28;20445;-73
2024/01/22 10:11:44;;;;;;;8.35;2.10;;;11.80;85.10;;;;;;5095301;28;20028;-73
2024/01/22 10:14:10;;;;;;;7.35;2.00;;;11.70;85.00;;;;;;5094664;28;20027;-73
2024/01/22 10:16:37;;;;;;;6.15;1.95;;;11.70;84.90;;;;;;5095075;28;20020;-72
2024/01/22 10:19:05;;;;;;;8.95;2.10;;;11.70;84.90;;;;;;5092855;28;20028;-72
2024/01/22 10:21:32;;;;;;;9.70;1.67;;;11.70;84.90;;;;;;5094755;28;20085;-74
2024/01/22 10:23:59;;;;;;;9.25;1.88;;;11.70;84.80;;;;;;5094615;28;20039;-72
2024/01/22 10:26:25;;;;;;;7.07;1.98;;;11.70;84.80;;;;;;5093619;28;20353;-72
2024/01/22 10:28:51;;;;;;;9.82;2.00;;;11.70;84.70;;;;;;5093952;28;20032;-73
2024/01/22 10:31:17;;;;;;;9.43;2.42;;;11.70;84.60;;;;;;5093426;28;20035;-73
2024/01/22 10:33:42;;;;;;;12.27;2.50;;;11.70;84.60;;;;;;5087209;28;20036;-73
2024/01/22 10:36:19;;;;;;;9.82;2.03;;;11.60;84.50;;;;;;5087103;28;20032;-73
2024/01/22 10:38:46;;;;;;;9.10;2.42;;;11.70;84.60;;;;;;5093462;28;20020;-72
2024/01/22 10:41:20;;;;;;;8.90;2.00;;;11.70;84.40;;;;;;5092193;28;20095;-72
2024/01/22 10:43:47;;;;;;;8.73;2.05;;;11.70;84.30;;;;;;5092986;28;20032;-73
2024/01/22 10:46:12;;;;;;;9.48;2.03;;;11.70;84.20;;;;;;5110201;28;20035;-72
2024/01/22 10:48:41;;;;;;;12.57;2.03;;;11.70;84.00;;;;;;5093524;28;20030;-73
2024/01/22 10:51:08;;;;;;;9.82;2.25;;;11.70;84.00;;;;;;5093779;28;20032;-73
2024/01/22 10:53:34;;;;;;;8.38;2.15;;;11.70;83.80;;;;;;5110295;28;20520;-73
2024/01/22 10:56:03;;;;;;;9.45;2.10;;;11.80;83.80;;;;;;5093610;28;20027;-73
2024/01/22 10:58:46;;;;;;;11.57;2.72;;;11.70;83.80;;;;;;5092937;28;20483;-73
2024/01/22 11:01:38;;;;;;;10.93;2.45;;;11.70;83.70;;;;;;5093781;28;20024;-73
2024/01/22 11:04:07;;;;;;;12.00;2.80;;;11.70;83.70;;;;;;5089702;28;20036;-73
2024/01/22 11:06:36;;;;;;;11.00;2.55;;;11.70;83.70;;;;;;5092766;28;20028;-73
2024/01/22 11:09:05;;;;;;;9.68;2.30;;;11.70;83.70;;;;;;5091559;28;20115;-73
2024/01/22 11:11:35;;;;;;;13.45;2.50;;;11.70;83.70;;;;;;5094380;28;20036;-73
2024/01/22 11:14:02;;;;;;;10.48;2.35;;;11.70;83.50;;;;;;5093167;28;20115;-73
2024/01/22 11:16:28;;;;;;;9.90;2.50;;;11.80;83.40;;;;;;5093691;28;20085;-73
2024/01/22 11:19:01;;;;;;;13.88;3.20;;;11.80;83.30;;;;;;5092357;28;20373;-72
2024/01/22 11:21:38;;;;;;;12.00;2.83;;;11.80;83.00;;;;;;5093294;28;20024;-73
2024/01/22 11:24:17;;;;;;;9.32;3.00;;;11.90;83.00;;;;;;5109844;28;20016;-73
2024/01/22 11:26:44;;;;;;;14.98;3.00;;;12.00;82.80;;;;;;5093204;28;20114;-73
2024/01/22 11:29:15;;;;;;;15.57;3.45;;;12.00;82.70;;;;;;5092275;28;20020;-73
2024/01/22 11:31:41;;;;;;;13.70;3.47;;;12.00;82.50;;;;;;5092449;28;20091;-73
2024/01/22 11:34:07;;;;;;;14.32;3.08;;;12.00;82.50;;;;;;5075619;28;20543;-73
2024/01/22 11:36:48;;;;;;;17.42;4.13;;;12.10;82.30;;;;;;5093183;28;20479;-72
2024/01/22 11:39:39;;;;;;;15.75;3.38;;;12.10;82.10;;;;;;5097350;28;20451;-73
2024/01/22 11:42:17;;;;;;;16.70;3.67;;;12.20;82.00;;;;;;5096794;28;20016;-72
2024/01/22 11:44:45;;;;;;;14.35;3.17;;;12.20;81.70;;;;;;5097591;28;20028;-72
2024/01/22 11:47:12;;;;;;;16.20;3.03;;;12.30;81.50;;;;;;5096311;28;20016;-73
2024/01/22 11:49:38;;;;;;;16.73;3.42;;;12.30;81.30;;;;;;5097073;28;20080;-73
2024/01/22 11:52:16;;;;;;;16.02;3.20;;;12.30;81.10;;;;;;5097359;28;20035;-72
2024/01/22 11:54:51;;;;;;;18.23;3.08;;;12.30;80.90;;;;;;5112980;28;20111;-72
2024/01/22 11:57:18;;;;;;;19.25;3.80;;;12.30;80.80;;;;;;5097385;28;20060;-72
2024/01/22 12:00:05;;;;;;;16.13;3.67;;;12.30;80.70;;;;;;5096983;28;20042;-72
2024/01/22 12:02:46;;;;;;;18.20;4.15;;;12.30;80.40;;;;;;5111842;28;20040;-73
2024/01/22 12:05:17;;;;;;;17.45;2.97;;;12.40;80.40;;;;;;5093055;28;20443;-72
2024/01/22 12:07:44;;;;;;;11.73;2.58;;;12.40;80.20;;;;;;5095850;28;20500;-73
2024/01/22 12:10:21;;;;;;;14.13;2.80;;;12.40;80.00;;;;;;5096589;28;20028;-73
2024/01/22 12:12:51;;;;;;;16.88;2.92;;;12.40;79.80;;;;;;5092975;28;20445;-73
2024/01/22 12:15:17;;;;;;;10.60;2.90;;;12.40;79.50;;;;;;5111511;27;20036;-72
2024/01/22 12:17:43;;;;;;;17.05;3.72;;;12.40;79.40;;;;;;5096005;28;20039;-72
2024/01/22 12:20:10;;;;;;;18.33;3.85;;;12.40;79.30;;;;;;5096131;28;20429;-73
2024/01/22 12:22:36;;;;;;;20.02;3.15;;;12.40;79.00;;;;;;5095618;28;20032;-72
2024/01/22 12:25:06;;;;;;;16.58;3.63;;;12.30;78.70;;;;;;5097683;28;20045;-71
2024/01/22 12:27:33;;;;;;;18.17;4.68;;;12.30;78.70;;;;;;5095619;28;20052;-73
2024/01/22 12:30:00;;;;;;;13.77;3.80;;;12.30;78.60;;;;;;5095244;28;20020;-72
2024/01/22 12:32:26;;;;;;;21.10;5.20;;;12.30;78.40;;;;;;5102727;28;20032;-72
2024/01/22 12:34:59;;;;;;;20.48;4.40;;;12.30;78.20;;;;;;5085988;28;20100;-73
2024/01/22 12:37:31;;;;;;;20.20;4.05;;;12.30;78.00;;;;;;5096426;28;20032;-71
2024/01/22 12:40:14;;;;;;;15.75;2.95;;;12.20;77.90;;;;;;5095108;28;20732;-73
2024/01/22 12:42:51;;;;;;;18.60;4.75;;;12.20;77.70;;;;;;5094398;28;20043;-70
2024/01/22 12:45:19;;;;;;;13.88;4.00;;;12.30;77.70;;;;;;5082309;28;20119;-70